createdAt,value
2017-11-24T00:01:53.212Z,76.30
2017-11-24T00:04:20.862Z,74.50
2017-11-24T00:06:48.490Z,74.40
2017-11-24T00:09:16.183Z,74.20
2017-11-24T00:11:43.824Z,74.00
2017-11-24T00:14:11.474Z,73.20
2017-11-24T00:16:39.195Z,73.40
2017-11-24T00:21:46.028Z,72.90
2017-11-24T00:24:13.669Z,73.70
2017-11-24T00:26:41.314Z,72.70
2017-11-24T00:29:09.018Z,73.50
2017-11-24T00:31:36.657Z,75.10
2017-11-24T00:34:04.299Z,76.20
2017-11-24T00:36:32.012Z,75.00
2017-11-24T00:38:59.632Z,76.30
2017-11-24T00:41:27.287Z,76.70
2017-11-24T00:43:55.858Z,75.40
2017-11-24T00:46:23.509Z,74.90
2017-11-24T00:48:51.147Z,74.00
2017-11-24T00:51:18.875Z,74.80
2017-11-24T00:53:46.520Z,75.90
2017-11-24T00:56:14.158Z,75.00
2017-11-24T00:58:42.685Z,74.60
2017-11-24T01:03:38.783Z,73.30
2017-11-24T01:06:07.736Z,72.90
2017-11-24T01:08:35.385Z,73.30
2017-11-24T01:11:03.021Z,73.50
2017-11-24T01:13:31.553Z,73.70
2017-11-24T01:15:59.205Z,75.00
2017-11-24T01:18:26.844Z,74.90
2017-11-24T01:20:55.507Z,76.40
2017-11-24T01:23:23.136Z,75.90
2017-11-24T01:25:50.772Z,76.10
2017-11-24T01:28:18.502Z,75.00
2017-11-24T01:30:46.160Z,74.90
2017-11-24T01:33:13.785Z,75.10
2017-11-24T01:35:41.503Z,75.20
2017-11-24T01:38:09.138Z,75.20
2017-11-24T01:40:36.788Z,75.40
2017-11-24T01:43:04.486Z,74.90
2017-11-24T01:45:32.132Z,74.90
2017-11-24T01:48:00.657Z,75.90
2017-11-24T01:53:07.465Z,75.30
2017-11-24T01:55:35.221Z,75.00
2017-11-24T01:58:02.879Z,73.50
2017-11-24T02:00:30.520Z,75.20
2017-11-24T02:02:58.776Z,76.50
2017-11-24T02:05:26.405Z,75.30
2017-11-24T02:07:54.062Z,74.80
2017-11-24T02:10:22.706Z,76.30
2017-11-24T02:12:50.346Z,76.70
2017-11-24T02:15:17.994Z,75.90
2017-11-24T02:17:45.691Z,76.00
2017-11-24T02:20:13.333Z,76.20
2017-11-24T02:22:40.985Z,76.80
2017-11-24T02:25:09.542Z,76.80
2017-11-24T02:27:37.195Z,77.30
2017-11-24T02:30:05.696Z,79.00
2017-11-24T02:32:33.400Z,79.80
2017-11-24T02:35:01.047Z,79.90
2017-11-24T02:37:28.671Z,81.00
2017-11-24T02:39:56.377Z,81.30
2017-11-24T02:42:24.022Z,80.90
2017-11-24T02:44:52.135Z,81.30
2017-11-24T02:47:19.837Z,79.50
2017-11-24T02:49:47.480Z,77.70
2017-11-24T02:52:15.129Z,77.80
2017-11-24T02:59:50.196Z,76.70
2017-11-24T03:02:17.827Z,76.40
2017-11-24T03:04:46.309Z,77.60
2017-11-24T03:07:13.992Z,78.30
2017-11-24T03:09:41.619Z,79.70
2017-11-24T03:12:09.256Z,80.10
2017-11-24T03:14:36.960Z,79.10
2017-11-24T03:17:04.612Z,78.40
2017-11-24T03:19:32.237Z,77.90
2017-11-24T03:21:59.925Z,78.60
2017-11-24T03:24:27.558Z,76.50
2017-11-24T03:26:55.196Z,77.30
2017-11-24T03:31:50.526Z,78.20
2017-11-24T03:34:18.164Z,78.80
2017-11-24T03:36:45.866Z,78.60
2017-11-24T03:39:13.508Z,79.40
2017-11-24T03:41:41.149Z,79.00
2017-11-24T03:46:37.667Z,77.70
2017-11-24T03:49:05.293Z,77.20
2017-11-24T03:51:33.007Z,78.00
2017-11-24T03:54:00.640Z,78.20
2017-11-24T03:56:28.273Z,79.10
2017-11-24T03:58:55.975Z,78.70
2017-11-24T04:01:23.622Z,79.40
2017-11-24T04:03:51.250Z,78.80
2017-11-24T04:06:18.927Z,78.50
2017-11-24T04:08:46.563Z,78.30
2017-11-24T04:16:21.079Z,77.80
2017-11-24T04:18:48.638Z,76.80
2017-11-24T04:21:17.142Z,76.70
2017-11-24T04:23:44.773Z,76.50
2017-11-24T04:26:12.409Z,76.20
2017-11-24T04:28:40.115Z,76.70
2017-11-24T04:31:08.711Z,77.00
2017-11-24T04:33:36.372Z,78.30
2017-11-24T04:36:04.058Z,78.60
2017-11-24T04:38:31.700Z,79.50
2017-11-24T04:40:59.336Z,80.60
2017-11-24T04:43:27.054Z,80.70
2017-11-24T04:45:54.693Z,80.90
2017-11-24T04:48:22.324Z,80.10
2017-11-24T04:50:51.652Z,80.50
2017-11-24T04:53:19.302Z,79.80
2017-11-24T04:55:46.942Z,79.80
2017-11-24T05:00:42.284Z,80.00
2017-11-24T05:03:09.918Z,81.20
2017-11-24T05:08:05.289Z,80.30
2017-11-24T05:10:32.931Z,81.60
2017-11-24T05:13:01.582Z,83.20
2017-11-24T05:15:29.215Z,84.60
2017-11-24T05:17:56.852Z,84.00
2017-11-24T05:20:24.557Z,82.60
2017-11-24T05:22:53.858Z,80.80
2017-11-24T05:27:49.210Z,80.70
2017-11-24T05:30:16.850Z,80.30
2017-11-24T05:35:12.222Z,82.70
2017-11-24T05:37:39.867Z,81.30
2017-11-24T05:42:47.627Z,81.70
2017-11-24T05:45:15.273Z,81.00
2017-11-24T05:47:42.923Z,80.60
2017-11-24T05:50:10.634Z,78.70
2017-11-24T05:55:05.928Z,78.90
2017-11-24T05:57:33.598Z,79.20
2017-11-24T06:00:01.258Z,80.50
2017-11-24T06:02:28.889Z,81.60
2017-11-24T06:04:56.606Z,82.10
2017-11-24T06:07:24.245Z,83.00
2017-11-24T06:09:53.071Z,83.20
2017-11-24T06:12:20.761Z,83.30
2017-11-24T06:14:48.402Z,82.30
2017-11-24T06:17:16.044Z,81.50
2017-11-24T06:19:43.763Z,81.10
2017-11-24T06:22:11.394Z,80.20
2017-11-24T06:24:39.016Z,81.00
2017-11-24T06:27:06.706Z,80.70
2017-11-24T06:29:34.334Z,81.10
2017-11-24T06:32:01.972Z,80.00
2017-11-24T06:34:31.122Z,79.50
2017-11-24T06:36:58.752Z,78.50
2017-11-24T06:39:26.377Z,79.10
2017-11-24T06:41:54.048Z,78.60
2017-11-24T06:44:21.682Z,78.00
2017-11-24T06:46:49.300Z,77.80
2017-11-24T06:49:17.011Z,77.40
2017-11-24T06:51:44.629Z,77.60
2017-11-24T06:54:12.260Z,78.30
2017-11-24T06:56:39.946Z,77.40
2017-11-24T06:59:07.587Z,77.90
2017-11-24T07:01:35.231Z,78.30
2017-11-24T07:06:42.047Z,79.00
2017-11-24T07:09:09.741Z,79.20
2017-11-24T07:11:37.374Z,78.40
2017-11-24T07:14:05.003Z,78.40
2017-11-24T07:19:00.323Z,80.60
2017-11-24T07:21:27.953Z,80.60
2017-11-24T07:23:56.596Z,80.80
2017-11-24T07:26:24.217Z,80.50
2017-11-24T07:28:51.849Z,80.10
2017-11-24T07:31:19.576Z,79.20
2017-11-24T07:33:47.202Z,79.30
2017-11-24T07:36:14.821Z,80.10
2017-11-24T07:38:42.500Z,80.70
2017-11-24T07:41:10.130Z,80.00
2017-11-24T07:43:37.762Z,79.70
2017-11-24T07:46:05.469Z,80.50
2017-11-24T07:48:33.093Z,80.70
2017-11-24T07:51:00.732Z,80.20
2017-11-24T07:53:28.433Z,79.90
2017-11-24T07:55:56.074Z,80.40
2017-11-24T07:58:23.729Z,82.00
2017-11-24T08:00:51.431Z,79.10
2017-11-24T08:03:19.061Z,83.00
2017-11-24T08:05:46.687Z,82.00
2017-11-24T08:08:14.365Z,75.10
2017-11-24T08:10:42.007Z,72.60
2017-11-24T08:13:10.371Z,77.10
2017-11-24T08:15:38.086Z,73.60
2017-11-24T08:18:05.729Z,77.00
2017-11-24T08:20:33.378Z,74.30
2017-11-24T08:25:28.703Z,75.70
2017-11-24T08:27:56.326Z,73.40
2017-11-24T08:35:30.782Z,70.90
2017-11-24T08:37:58.410Z,70.90
2017-11-24T08:40:26.866Z,69.00
2017-11-24T08:42:54.553Z,66.20
2017-11-24T08:45:22.186Z,65.60
2017-11-24T08:47:55.589Z,63.30
2017-11-24T08:50:23.212Z,65.90
2017-11-24T08:52:50.859Z,63.90
2017-11-24T08:55:18.550Z,64.10
2017-11-24T08:57:46.169Z,61.70
2017-11-24T09:00:13.781Z,64.10
2017-11-24T09:02:41.855Z,57.40
2017-11-24T09:05:09.510Z,60.90
2017-11-24T09:07:37.117Z,55.50
2017-11-24T09:10:04.819Z,57.70
2017-11-24T09:12:32.437Z,58.70
2017-11-24T09:15:01.006Z,56.90
2017-11-24T09:17:28.702Z,57.20
2017-11-24T09:19:56.323Z,55.00
2017-11-24T09:22:23.946Z,56.10
2017-11-24T09:24:51.626Z,53.90
2017-11-24T09:27:19.249Z,54.20
2017-11-24T09:29:47.007Z,54.90
2017-11-24T09:32:14.620Z,53.50
2017-11-24T09:34:42.268Z,56.20
2017-11-24T09:37:09.918Z,56.50
2017-11-24T09:39:37.597Z,55.00
2017-11-24T09:42:05.242Z,54.70
2017-11-24T09:44:32.887Z,55.00
2017-11-24T09:47:00.600Z,54.30
2017-11-24T09:49:28.238Z,54.10
2017-11-24T09:57:02.651Z,55.40
2017-11-24T09:59:30.298Z,54.50
2017-11-24T10:01:58.029Z,53.00
2017-11-24T10:04:26.621Z,59.30
2017-11-24T10:06:54.253Z,56.30
2017-11-24T10:09:21.948Z,55.30
2017-11-24T10:11:49.585Z,53.20
2017-11-24T10:14:17.223Z,51.70
2017-11-24T10:16:44.931Z,54.00
2017-11-24T10:19:12.570Z,52.70
2017-11-24T10:21:46.789Z,50.20
2017-11-24T10:24:14.423Z,51.60
2017-11-24T10:26:42.064Z,50.70
2017-11-24T10:29:09.756Z,51.50
2017-11-24T10:31:37.393Z,49.50
2017-11-24T10:34:05.012Z,51.70
2017-11-24T10:36:32.715Z,50.20
2017-11-24T10:39:00.325Z,51.70
2017-11-24T10:41:27.966Z,50.20
2017-11-24T10:43:55.696Z,48.80
2017-11-24T10:46:23.330Z,49.10
2017-11-24T10:48:50.970Z,50.60
2017-11-24T10:51:19.478Z,50.10
2017-11-24T10:56:14.753Z,50.20
2017-11-24T10:58:42.461Z,50.70
2017-11-24T11:03:38.670Z,49.50
2017-11-24T11:06:06.537Z,49.40
2017-11-24T11:08:34.188Z,50.10
2017-11-24T11:11:01.820Z,50.30
2017-11-24T11:13:29.535Z,49.70
2017-11-24T11:18:37.785Z,47.90
2017-11-24T11:21:05.435Z,48.70
2017-11-24T11:23:33.902Z,46.50
2017-11-24T11:26:01.577Z,47.40
2017-11-24T11:28:29.221Z,47.90
2017-11-24T11:30:56.869Z,47.20
2017-11-24T11:33:24.564Z,46.90
2017-11-24T11:35:52.199Z,48.10
2017-11-24T11:38:19.825Z,48.80
2017-11-24T11:40:47.527Z,47.60
2017-11-24T11:43:15.196Z,47.60
2017-11-24T11:45:42.825Z,48.20
2017-11-24T11:48:10.541Z,49.00
2017-11-24T11:50:38.182Z,47.10
2017-11-24T11:53:05.819Z,47.10
2017-11-24T11:55:33.554Z,48.00
2017-11-24T11:58:01.187Z,48.20
2017-11-24T12:00:29.785Z,48.50
2017-11-24T12:02:57.474Z,47.50
2017-11-24T12:05:25.975Z,48.90
2017-11-24T12:07:53.593Z,49.40
2017-11-24T12:10:21.307Z,49.40
2017-11-24T12:12:48.949Z,49.50
2017-11-24T12:15:17.563Z,48.90
2017-11-24T12:20:12.860Z,48.30
2017-11-24T12:22:40.497Z,47.30
2017-11-24T12:25:08.169Z,46.90
2017-11-24T12:27:35.803Z,48.10
2017-11-24T12:30:03.440Z,48.20
2017-11-24T12:32:31.146Z,47.00
2017-11-24T12:34:58.795Z,46.40
2017-11-24T12:37:26.429Z,47.80
2017-11-24T12:39:54.122Z,48.60
2017-11-24T12:47:30.738Z,48.60
2017-11-24T12:49:58.287Z,46.80
2017-11-24T12:52:26.070Z,49.40
2017-11-24T12:54:53.695Z,47.10
2017-11-24T12:57:22.189Z,48.20
2017-11-24T12:59:50.214Z,48.50
2017-11-24T13:02:19.797Z,47.30
2017-11-24T13:04:47.944Z,48.30
2017-11-24T13:07:16.037Z,47.80
2017-11-24T13:09:44.235Z,47.50
2017-11-24T13:12:14.787Z,48.20
2017-11-24T13:17:39.172Z,47.90
2017-11-24T13:22:44.852Z,46.30
2017-11-24T13:25:12.600Z,47.80
2017-11-24T13:27:40.255Z,52.80
2017-11-24T13:30:07.929Z,51.00
2017-11-24T13:32:35.640Z,48.80
2017-11-24T13:37:30.911Z,49.00
2017-11-24T13:39:58.618Z,45.20
2017-11-24T13:44:53.879Z,46.70
2017-11-24T13:47:21.572Z,47.50
2017-11-24T13:49:49.550Z,45.80
2017-11-24T13:52:17.164Z,45.30
2017-11-24T13:54:44.861Z,44.30
2017-11-24T13:57:12.493Z,44.20
2017-11-24T13:59:40.122Z,43.60
2017-11-24T14:02:07.861Z,44.80
2017-11-24T14:04:35.476Z,43.50
2017-11-24T14:07:03.124Z,44.00
2017-11-24T14:09:30.838Z,44.70
2017-11-24T14:11:58.480Z,44.30
2017-11-24T14:14:26.139Z,45.20
2017-11-24T14:16:53.824Z,45.90
2017-11-24T14:21:49.095Z,47.40
2017-11-24T14:24:16.832Z,45.70
2017-11-24T14:29:12.105Z,46.60
2017-11-24T14:31:39.804Z,46.60
2017-11-24T14:36:35.102Z,49.50
2017-11-24T14:41:41.881Z,48.20
2017-11-24T14:44:09.670Z,47.30
2017-11-24T14:46:37.307Z,47.10
2017-11-24T14:49:04.934Z,46.60
2017-11-24T14:51:32.622Z,46.60
2017-11-24T14:54:00.280Z,47.70
2017-11-24T14:56:27.916Z,48.90
2017-11-24T14:58:55.629Z,49.30
2017-11-24T15:03:51.148Z,50.20
2017-11-24T15:06:19.183Z,50.00
2017-11-24T15:08:47.641Z,51.50
2017-11-24T15:11:15.281Z,51.00
2017-11-24T15:13:43.011Z,51.70
2017-11-24T15:16:11.599Z,53.30
2017-11-24T15:18:39.262Z,53.80
2017-11-24T15:21:06.938Z,53.00
2017-11-24T15:23:34.576Z,55.10
2017-11-24T15:26:02.219Z,55.90
2017-11-24T15:28:30.919Z,56.20
2017-11-24T15:30:58.560Z,56.10
2017-11-24T15:33:26.190Z,57.30
2017-11-24T15:35:53.893Z,57.00
2017-11-24T15:38:21.535Z,58.10
2017-11-24T15:40:49.167Z,58.20
2017-11-24T15:43:17.755Z,59.20
2017-11-24T15:45:46.226Z,60.10
2017-11-24T15:48:13.866Z,60.40
2017-11-24T15:50:41.554Z,60.40
2017-11-24T15:53:09.186Z,59.90
2017-11-24T15:58:04.507Z,60.70
2017-11-24T16:00:32.149Z,61.20
2017-11-24T16:02:59.799Z,61.40
2017-11-24T16:08:07.570Z,61.30
2017-11-24T16:10:35.241Z,61.40
2017-11-24T16:13:02.869Z,60.10
2017-11-24T16:15:30.501Z,59.50
2017-11-24T16:17:58.199Z,59.90
2017-11-24T16:20:25.920Z,58.70
2017-11-24T16:22:53.566Z,58.90
2017-11-24T16:25:21.257Z,58.70
2017-11-24T16:27:48.889Z,62.10
2017-11-24T16:30:16.507Z,62.20
2017-11-24T16:32:44.193Z,61.90
2017-11-24T16:35:12.655Z,62.40
2017-11-24T16:37:41.237Z,61.80
2017-11-24T16:40:08.934Z,62.20
2017-11-24T16:42:36.566Z,63.40
2017-11-24T16:45:05.022Z,65.30
2017-11-24T16:47:32.701Z,65.40
2017-11-24T16:50:00.331Z,65.10
2017-11-24T16:54:55.669Z,65.00
2017-11-24T16:57:23.294Z,64.90
2017-11-24T16:59:50.921Z,64.70
2017-11-24T17:02:20.358Z,62.60
2017-11-24T17:04:48.548Z,63.60
2017-11-24T17:07:17.031Z,65.30
2017-11-24T17:09:44.724Z,65.00
2017-11-24T17:12:12.357Z,65.20
2017-11-24T17:14:40.008Z,66.40
2017-11-24T17:17:07.738Z,65.10
2017-11-24T17:19:36.214Z,67.00
2017-11-24T17:22:03.851Z,66.30
2017-11-24T17:24:31.537Z,66.10
2017-11-24T17:26:59.177Z,66.70
2017-11-24T17:29:26.827Z,66.60
2017-11-24T17:31:54.528Z,66.40
2017-11-24T17:37:04.700Z,66.70
2017-11-24T17:39:33.005Z,66.10
2017-11-24T17:42:00.657Z,66.20
2017-11-24T17:44:28.378Z,65.40
2017-11-24T17:46:56.019Z,66.30
2017-11-24T17:49:23.643Z,65.80
2017-11-24T17:51:51.328Z,66.50
2017-11-24T17:54:18.969Z,66.50
2017-11-24T17:56:46.617Z,66.40
2017-11-24T17:59:15.141Z,67.70
2017-11-24T18:01:42.765Z,66.80
2017-11-24T18:04:11.382Z,66.10
2017-11-24T18:06:39.067Z,66.20
2017-11-24T18:09:07.652Z,66.30
2017-11-24T18:11:35.283Z,67.20
2017-11-24T18:14:03.002Z,67.40
2017-11-24T18:18:58.273Z,67.30
2017-11-24T18:21:25.953Z,67.00
2017-11-24T18:23:53.590Z,66.10
2017-11-24T18:26:21.226Z,66.30
2017-11-24T18:31:28.860Z,67.80
2017-11-24T18:33:56.532Z,68.30
2017-11-24T18:36:24.989Z,68.60
2017-11-24T18:38:52.622Z,68.70
2017-11-24T18:41:21.281Z,68.10
2017-11-24T18:43:49.489Z,68.30
2017-11-24T18:46:17.139Z,67.90
2017-11-24T18:48:44.841Z,67.60
2017-11-24T18:51:12.979Z,65.10
2017-11-24T18:53:40.606Z,66.10
2017-11-24T18:56:09.149Z,67.90
2017-11-24T18:58:36.794Z,66.50
2017-11-24T19:01:04.445Z,67.80
2017-11-24T19:03:32.169Z,67.20
2017-11-24T19:05:59.900Z,66.70
2017-11-24T19:08:27.534Z,66.90
2017-11-24T19:10:55.208Z,67.10
2017-11-24T19:13:23.445Z,66.20
2017-11-24T19:15:51.162Z,66.60
2017-11-24T19:18:18.895Z,66.90
2017-11-24T19:20:46.877Z,67.20
2017-11-24T19:23:15.364Z,66.60
2017-11-24T19:25:43.876Z,66.80
2017-11-24T19:28:11.492Z,67.70
2017-11-24T19:30:40.101Z,67.70
2017-11-24T19:33:07.823Z,67.10
2017-11-24T19:35:35.459Z,67.90
2017-11-24T19:40:30.809Z,67.10
2017-11-24T19:42:58.784Z,68.20
2017-11-24T19:45:26.463Z,67.50
2017-11-24T19:47:54.124Z,67.80
2017-11-24T19:50:22.226Z,67.40
2017-11-24T19:52:49.396Z,67.50
2017-11-24T19:57:58.193Z,67.40
2017-11-24T20:00:25.926Z,67.10
2017-11-24T20:02:53.563Z,67.00
2017-11-24T20:05:21.346Z,67.00
2017-11-24T20:07:48.997Z,67.00
2017-11-24T20:10:16.712Z,66.50
2017-11-24T20:12:44.337Z,66.40
2017-11-24T20:15:12.040Z,67.10
2017-11-24T20:17:39.665Z,66.50
2017-11-24T20:20:07.367Z,67.70
2017-11-24T20:22:35.079Z,69.10
2017-11-24T20:25:02.700Z,69.80
2017-11-24T20:29:58.409Z,70.20
2017-11-24T20:32:26.290Z,71.00
2017-11-24T20:34:53.958Z,70.80
2017-11-24T20:37:21.908Z,70.00
2017-11-24T20:39:49.679Z,69.20
2017-11-24T20:42:17.500Z,71.60
2017-11-24T20:44:45.226Z,71.70
2017-11-24T20:47:12.862Z,71.70
2017-11-24T20:52:08.491Z,71.70
2017-11-24T20:54:36.240Z,72.10
2017-11-24T20:57:03.900Z,72.00
2017-11-24T20:59:31.590Z,72.60
2017-11-24T21:01:59.440Z,73.20
2017-11-24T21:04:27.071Z,72.00
2017-11-24T21:06:54.766Z,72.00
2017-11-24T21:09:22.553Z,72.40
2017-11-24T21:14:31.491Z,72.40
2017-11-24T21:16:59.168Z,72.90
2017-11-24T21:19:26.877Z,71.80
2017-11-24T21:21:54.713Z,71.60
2017-11-24T21:24:22.346Z,71.80
2017-11-24T21:26:50.010Z,71.80
2017-11-24T21:29:17.801Z,71.20
2017-11-24T21:31:45.708Z,70.40
2017-11-24T21:34:13.428Z,70.60
2017-11-24T21:36:41.332Z,70.60
2017-11-24T21:39:08.794Z,70.40
2017-11-24T21:44:04.474Z,70.00
2017-11-24T21:46:32.099Z,70.10
2017-11-24T21:49:00.051Z,70.00
2017-11-24T21:51:27.805Z,70.30
2017-11-24T21:53:55.432Z,72.10
2017-11-24T21:56:23.179Z,72.50
2017-11-24T21:58:50.892Z,71.70
2017-11-24T22:03:46.281Z,72.50
2017-11-24T22:06:13.962Z,72.10
2017-11-24T22:08:41.621Z,71.60
2017-11-24T22:11:09.259Z,70.70
2017-11-24T22:13:37.403Z,70.40
2017-11-24T22:16:05.020Z,70.40
2017-11-24T22:18:32.892Z,72.90
2017-11-24T22:21:00.505Z,72.50
2017-11-24T22:23:28.133Z,72.00
2017-11-24T22:25:55.757Z,71.40
2017-11-24T22:28:23.434Z,71.60
2017-11-24T22:35:57.832Z,73.10
2017-11-24T22:38:25.480Z,73.00
2017-11-24T22:40:53.108Z,72.30
2017-11-24T22:43:20.792Z,71.60
2017-11-24T22:45:48.430Z,72.40
2017-11-24T22:48:16.049Z,74.10
2017-11-24T22:50:43.745Z,74.00
2017-11-24T22:55:39.023Z,74.80
2017-11-24T22:58:06.716Z,74.10
2017-11-24T23:00:34.342Z,73.90
2017-11-24T23:03:01.978Z,74.10
2017-11-24T23:05:29.702Z,74.50
2017-11-24T23:10:48.304Z,75.60
2017-11-24T23:13:15.989Z,74.10
2017-11-24T23:15:43.672Z,75.50
2017-11-24T23:18:11.407Z,75.70
2017-11-24T23:20:39.586Z,76.10
2017-11-24T23:23:07.219Z,76.70
2017-11-24T23:25:35.397Z,77.20
2017-11-24T23:30:38.782Z,77.40
2017-11-24T23:33:06.477Z,76.90
2017-11-24T23:35:35.553Z,75.90
2017-11-24T23:38:02.836Z,75.70
2017-11-24T23:40:30.520Z,77.10
2017-11-24T23:42:58.182Z,76.20
2017-11-24T23:45:25.897Z,76.20
2017-11-24T23:47:53.550Z,76.90
2017-11-24T23:50:21.194Z,76.80
2017-11-24T23:52:48.911Z,76.70
2017-11-24T23:55:16.578Z,77.80
2017-11-24T23:57:46.877Z,77.00
